Time;durP1;ratioP1;P1;durP2;ratioP2;P2;SDS_P1;SDS_P2;PMS_P1;PMS_P2;Temp;Humidity;BMP_temperature;BMP_pressure;BME280_temperature;BME280_humidity;BME280_pressure;Samples;Min_cycle;Max_cycle;Signal;HPM_P1;HPM_P2
2024/03/27 00:00:15;;;;;;;17.40;11.50;;;;;;;7.21;59.84;98816.84;102726;1262;99068;-72
2024/03/27 00:03:04;;;;;;;15.20;10.80;;;;;;;7.18;59.95;98820.61;102651;1261;137882;-72
2024/03/27 00:05:31;;;;;;;15.50;11.90;;;;;;;7.12;60.08;98807.00;102780;1261;106526;-74
2024/03/27 00:07:59;;;;;;;18.40;12.30;;;;;;;7.11;60.21;98810.86;102783;1262;99693;-72
2024/03/27 00:10:27;;;;;;;17.40;11.80;;;;;;;7.08;60.26;98810.15;102672;1265;138489;-73
2024/03/27 00:12:57;;;;;;;14.80;11.50;;;;;;;7.07;60.41;98809.66;102682;1262;99222;-72
2024/03/27 00:15:23;;;;;;;;;;;;;;;7.05;60.31;98811.45;102667;1262;138582;-72
2024/03/27 00:17:49;;;;;;;16.50;11.90;;;;;;;7.02;60.57;98815.77;102715;1262;106876;-72
2024/03/27 00:20:16;;;;;;;17.20;11.40;;;;;;;7.00;60.62;98806.65;102767;1262;99065;-73
2024/03/27 00:22:42;;;;;;;14.80;11.20;;;;;;;6.98;60.58;98802.71;102641;1262;138760;-72
2024/03/27 00:25:08;;;;;;;;;;;;;;;6.98;60.68;98799.11;102725;1267;99204;-72
2024/03/27 00:27:34;;;;;;;17.30;11.50;;;;;;;6.95;60.69;98796.30;102686;1261;124995;-72
2024/03/27 00:30:01;;;;;;;15.40;11.10;;;;;;;6.93;60.80;98792.94;102705;1263;108257;-72
2024/03/27 00:32:27;;;;;;;15.00;10.40;;;;;;;6.92;60.85;98799.70;102596;1267;138740;-71
2024/03/27 00:34:52;;;;;;;;;;;;;;;6.92;60.73;98787.79;102850;1262;107889;-71
2024/03/27 00:37:19;;;;;;;17.20;11.40;;;;;;;6.90;60.96;98785.81;102753;1265;99236;-71
2024/03/27 00:39:43;;;;;;;;;;;;;;;6.87;60.99;98781.27;102700;1262;138582;-71
2024/03/27 00:42:10;;;;;;;13.10;10.50;;;;;;;6.86;61.00;98775.61;102686;1261;107649;-71
2024/03/27 00:44:35;;;;;;;;;;;;;;;6.83;60.94;98773.11;102666;1262;139409;-69
2024/03/27 00:47:01;;;;;;;15.60;11.00;;;;;;;6.82;61.05;98769.88;102674;1262;106944;-71
2024/03/27 00:49:26;;;;;;;;;;;;;;;6.80;61.19;98767.20;102714;1266;99175;-73
2024/03/27 00:51:53;;;;;;;17.70;10.50;;;;;;;6.78;61.24;98760.88;102641;1262;124645;-72
2024/03/27 00:54:17;;;;;;;;;;;;;;;6.78;61.04;98760.20;102758;1262;107947;-72
2024/03/27 00:56:44;;;;;;;14.50;10.40;;;;;;;6.76;61.27;98751.63;102675;1262;124804;-71
2024/03/27 00:59:10;;;;;;;16.70;10.90;;;;;;;6.76;61.28;98748.90;102824;1262;106809;-72
2024/03/27 01:01:35;;;;;;;;;;;;;;;6.75;61.23;98744.08;102769;1261;99277;-71
2024/03/27 01:04:01;;;;;;;13.50;10.20;;;;;;;6.74;61.37;98742.91;102658;1262;124486;-71
2024/03/27 01:06:28;;;;;;;16.00;10.60;;;;;;;6.74;61.31;98742.25;102744;1266;106565;-71
2024/03/27 01:08:53;;;;;;;;;;;;;;;6.74;61.26;98734.62;102623;1262;138930;-71
2024/03/27 01:11:19;;;;;;;13.70;10.00;;;;;;;6.72;61.30;98737.29;102028;1262;1003194;-72
2024/03/27 01:13:46;;;;;;;13.30;9.70;;;;;;;6.72;61.40;98728.68;102694;1261;99229;-71
2024/03/27 01:16:10;;;;;;;;;;;;;;;6.71;61.22;98720.92;102698;1262;139639;-71
2024/03/27 01:18:37;;;;;;;13.20;9.70;;;;;;;6.67;61.32;98716.09;102696;1266;108727;-72
2024/03/27 01:21:03;;;;;;;16.20;10.40;;;;;;;6.67;61.62;98721.81;102601;1262;138531;-71
2024/03/27 01:23:30;;;;;;;13.20;10.10;;;;;;;6.65;61.44;98710.30;102694;1268;108089;-71
2024/03/27 01:25:56;;;;;;;11.70;9.20;;;;;;;6.63;61.65;98715.36;102712;1262;99070;-72
2024/03/27 01:28:21;;;;;;;;;;;;;;;6.62;61.61;98719.04;102675;1264;138242;-73
2024/03/27 01:30:48;;;;;;;12.70;10.00;;;;;;;6.59;61.84;98719.31;102657;1266;108372;-72
2024/03/27 01:33:14;;;;;;;12.10;9.50;;;;;;;6.57;61.75;98712.52;101914;1262;1002960;-72
2024/03/27 01:35:46;;;;;;;17.50;10.00;;;;;;;6.56;61.77;98722.23;102724;1262;107686;-73
2024/03/27 01:38:13;;;;;;;14.40;10.50;;;;;;;6.54;61.90;98721.10;102794;1262;99207;-72
2024/03/27 01:40:39;;;;;;;15.30;9.80;;;;;;;6.52;62.19;98724.79;102685;1261;138168;-71
2024/03/27 01:43:05;;;;;;;;;;;;;;;6.50;61.93;98709.35;102759;1262;108075;-72
2024/03/27 01:45:32;;;;;;;13.10;9.70;;;;;;;6.47;62.09;98699.10;102705;1261;124942;-73
2024/03/27 01:47:58;;;;;;;13.60;9.20;;;;;;;6.45;62.05;98698.99;102757;1262;107885;-72
2024/03/27 01:50:28;;;;;;;13.80;10.00;;;;;;;6.43;62.22;98690.79;102693;1262;138677;-71
2024/03/27 01:52:56;;;;;;;18.30;9.50;;;;;;;6.42;62.07;98690.34;102790;1262;111648;-72
2024/03/27 01:55:23;;;;;;;14.60;9.90;;;;;;;6.40;62.17;98692.46;102763;1262;106816;-73
2024/03/27 01:57:50;;;;;;;16.30;9.60;;;;;;;6.40;62.13;98693.52;102602;1262;138445;-72
2024/03/27 02:00:19;;;;;;;13.10;9.50;;;;;;;6.38;62.40;98700.33;102778;1266;107367;-71
2024/03/27 02:02:46;;;;;;;13.70;9.30;;;;;;;6.37;62.29;98690.02;102609;1262;139735;-71
2024/03/27 02:05:13;;;;;;;13.30;9.70;;;;;;;6.37;62.36;98688.98;102789;1262;114618;-73
2024/03/27 02:07:41;;;;;;;15.40;8.80;;;;;;;6.35;62.42;98685.59;102701;1262;106962;-71
2024/03/27 02:10:09;;;;;;;16.50;10.30;;;;;;;6.33;62.38;98684.13;102613;1263;138491;-72
2024/03/27 02:12:36;;;;;;;12.50;10.00;;;;;;;6.32;62.53;98677.95;102947;1261;106680;-72
2024/03/27 02:19:10;;;;;;;13.90;10.00;;;;;;;6.31;62.43;98682.67;102762;1266;112191;-72
2024/03/27 02:22:04;;;;;;;12.60;9.30;;;;;;;6.31;62.61;98680.61;102590;1262;138717;-72
2024/03/27 02:25:10;;;;;;;13.60;8.80;;;;;;;6.30;62.68;98681.83;102768;1265;99718;-72
2024/03/27 02:28:11;;;;;;;12.10;9.40;;;;;;;6.31;62.54;98668.33;102597;1262;138315;-72
2024/03/27 02:31:12;;;;;;;16.60;9.50;;;;;;;6.33;62.49;98665.52;102625;1262;99181;-71
2024/03/27 02:34:12;;;;;;;12.00;9.00;;;;;;;6.34;62.45;98668.36;102686;1265;138159;-72
2024/03/27 02:37:13;;;;;;;12.40;9.30;;;;;;;6.36;62.32;98666.23;102759;1262;107399;-73
2024/03/27 02:40:16;;;;;;;10.10;8.70;;;;;;;6.37;62.22;98656.36;102680;1266;138345;-72
2024/03/27 02:43:16;;;;;;;13.40;9.40;;;;;;;6.38;62.24;98653.21;102721;1262;107916;-72
2024/03/27 02:46:17;;;;;;;11.70;8.40;;;;;;;6.38;62.18;98655.45;102565;1262;138659;-71
2024/03/27 02:49:17;;;;;;;12.90;8.90;;;;;;;6.38;62.08;98652.16;102758;1261;112211;-71
2024/03/27 02:52:18;;;;;;;11.60;9.20;;;;;;;6.39;62.02;98646.42;102614;1262;138466;-74
2024/03/27 02:55:19;;;;;;;12.30;8.40;;;;;;;6.38;62.02;98645.08;102780;1266;100870;-72
2024/03/27 02:58:19;;;;;;;12.40;9.10;;;;;;;6.38;61.88;98639.76;102692;1267;138351;-72
2024/03/27 03:01:20;;;;;;;12.20;8.70;;;;;;;6.37;61.89;98646.16;102761;1265;99180;-72
2024/03/27 03:04:21;;;;;;;12.60;8.80;;;;;;;6.37;61.80;98639.41;102644;1262;138201;-71
2024/03/27 03:07:21;;;;;;;11.70;8.70;;;;;;;6.38;61.79;98636.80;102722;1265;107291;-71
2024/03/27 03:10:22;;;;;;;13.00;8.20;;;;;;;6.36;61.83;98645.86;102706;1262;139403;-72
2024/03/27 03:13:22;;;;;;;13.00;8.50;;;;;;;6.35;61.80;98637.95;102712;1262;107703;-73
2024/03/27 03:16:23;;;;;;;15.00;8.20;;;;;;;6.33;61.76;98634.74;102613;1266;138693;-71
2024/03/27 03:19:23;;;;;;;11.50;8.40;;;;;;;6.32;61.65;98626.52;102756;1262;112786;-72
2024/03/27 03:22:24;;;;;;;14.40;8.50;;;;;;;6.31;61.67;98615.16;102661;1262;138394;-72
2024/03/27 03:25:25;;;;;;;11.60;7.80;;;;;;;6.30;61.71;98612.98;102774;1266;99677;-71
2024/03/27 03:28:25;;;;;;;12.00;8.70;;;;;;;6.29;61.82;98605.08;102683;1262;138184;-72
2024/03/27 03:31:25;;;;;;;11.00;7.60;;;;;;;6.27;61.73;98599.44;102743;1267;99175;-72
2024/03/27 03:34:26;;;;;;;13.90;8.20;;;;;;;6.25;61.69;98598.84;102685;1262;138190;-71
2024/03/27 03:37:27;;;;;;;11.10;8.80;;;;;;;6.23;61.75;98588.04;102773;1267;106905;-73
2024/03/27 03:40:28;;;;;;;12.40;8.50;;;;;;;6.21;61.71;98584.52;102694;1262;138510;-73
2024/03/27 03:43:29;;;;;;;11.20;7.80;;;;;;;6.21;61.60;98577.42;102768;1264;107830;-72
2024/03/27 03:46:29;;;;;;;12.30;7.80;;;;;;;6.21;61.76;98581.73;102612;1262;138346;-72
2024/03/27 03:49:29;;;;;;;12.20;8.10;;;;;;;6.21;61.79;98581.06;102000;1262;1002956;-73
2024/03/27 03:52:29;;;;;;;10.80;8.10;;;;;;;6.20;61.72;98590.23;102596;1262;138461;-73
2024/03/27 03:55:30;;;;;;;11.40;8.30;;;;;;;6.20;61.57;98585.59;102755;1267;99184;-72
2024/03/27 03:58:30;;;;;;;11.60;7.60;;;;;;;6.19;61.77;98575.11;102584;1262;138199;-72
2024/03/27 04:01:31;;;;;;;12.90;8.10;;;;;;;6.18;61.70;98574.96;102744;1262;99209;-72
2024/03/27 04:04:32;;;;;;;11.00;8.10;;;;;;;6.17;61.72;98567.23;102590;1266;139784;-72
2024/03/27 04:07:32;;;;;;;13.80;8.20;;;;;;;6.15;61.68;98583.41;102708;1262;107626;-72
2024/03/27 04:10:33;;;;;;;12.10;7.70;;;;;;;6.12;61.70;98571.61;102649;1261;138502;-73
2024/03/27 04:13:33;;;;;;;14.40;9.70;;;;;;;6.10;61.87;98574.63;102778;1262;107890;-72
2024/03/27 04:16:34;;;;;;;10.50;7.70;;;;;;;6.06;61.87;98574.91;102801;1267;138510;-72
2024/03/27 04:19:34;;;;;;;12.80;8.60;;;;;;;6.04;61.83;98577.79;102771;1261;112239;-71
2024/03/27 04:22:37;;;;;;;9.40;7.60;;;;;;;6.02;61.80;98582.54;102616;1262;139453;-73
2024/03/27 04:25:38;;;;;;;12.70;7.20;;;;;;;5.98;61.92;98568.01;102730;1262;99176;-72
2024/03/27 04:28:57;;;;;;;12.80;7.00;;;;;;;5.97;61.91;98573.75;102675;1262;138101;-71
2024/03/27 04:31:58;;;;;;;9.90;7.40;;;;;;;5.97;61.92;98563.59;102740;1267;99180;-70
2024/03/27 04:34:58;;;;;;;12.20;7.40;;;;;;;5.98;62.05;98568.03;102658;1262;137157;-71
2024/03/27 04:37:58;;;;;;;10.30;8.20;;;;;;;5.98;61.74;98578.90;102724;1266;106655;-72
2024/03/27 04:40:58;;;;;;;9.50;7.70;;;;;;;5.97;61.75;98551.15;101895;1262;1003414;-71
2024/03/27 04:43:58;;;;;;;10.90;7.50;;;;;;;5.98;61.84;98556.65;102771;1262;107211;-71
2024/03/27 04:46:58;;;;;;;8.80;7.50;;;;;;;5.98;61.83;98551.79;102712;1262;137482;-70
2024/03/27 04:49:59;;;;;;;11.80;7.70;;;;;;;6.02;61.71;98548.18;102789;1262;111830;-70
2024/03/27 04:52:59;;;;;;;10.00;7.60;;;;;;;6.09;61.28;98544.27;102788;1262;139233;-71
2024/03/27 04:56:04;;;;;;;11.80;7.90;;;;;;;6.20;61.14;98540.05;103292;1261;99188;-71
2024/03/27 04:59:04;;;;;;;11.20;7.40;;;;;;;6.35;60.69;98545.07;103056;1262;106682;-71
2024/03/27 05:02:05;;;;;;;9.20;7.10;;;;;;;6.53;60.25;98533.25;102824;1267;99182;-71
2024/03/27 05:05:06;;;;;;;9.00;7.60;;;;;;;6.57;60.01;98531.02;102854;1262;112721;-71
2024/03/27 05:08:07;;;;;;;12.40;8.10;;;;;;;6.58;59.83;98528.04;102786;1262;106553;-72
2024/03/27 05:11:07;;;;;;;13.40;7.80;;;;;;;6.52;59.85;98520.90;102798;1266;99701;-72
2024/03/27 05:14:07;;;;;;;12.10;7.60;;;;;;;6.45;59.95;98526.70;102678;1262;107882;-72
2024/03/27 05:17:08;;;;;;;10.00;7.40;;;;;;;6.40;60.01;98526.22;95115;1262;10204238;-72
2024/03/27 05:20:09;;;;;;;15.80;7.90;;;;;;;6.37;59.97;98519.82;102738;1264;106866;-73
2024/03/27 05:23:10;;;;;;;8.90;6.60;;;;;;;6.38;60.08;98522.18;102693;1262;99175;-72
2024/03/27 05:26:11;;;;;;;8.80;7.30;;;;;;;6.42;59.87;98525.77;102773;1261;112169;-73
2024/03/27 05:29:11;;;;;;;10.50;7.30;;;;;;;6.50;59.87;98524.60;102710;1266;107026;-74
2024/03/27 05:32:12;;;;;;;12.50;7.10;;;;;;;6.73;59.42;98521.34;102728;1265;99709;-75
2024/03/27 05:35:14;;;;;;;9.40;6.30;;;;;;;7.15;58.45;98523.45;102683;1262;107430;-75
2024/03/27 05:38:14;;;;;;;10.80;7.00;;;;;;;7.74;57.30;98516.52;102187;1262;1002687;-72
2024/03/27 05:41:14;;;;;;;11.60;6.70;;;;;;;8.76;56.18;98505.63;102751;1262;114700;-74
2024/03/27 05:44:15;;;;;;;10.50;6.50;;;;;;;9.96;53.06;98508.42;101968;1262;1003227;-72
2024/03/27 05:47:15;;;;;;;8.80;6.20;;;;;;;10.90;50.40;98501.30;102777;1264;99148;-73
2024/03/27 05:50:18;;;;;;;9.90;5.80;;;;;;;11.52;48.63;98498.98;102706;1262;108283;-72
2024/03/27 05:53:18;;;;;;;10.30;5.80;;;;;;;11.45;47.42;98501.70;102727;1263;99271;-73
2024/03/27 05:56:19;;;;;;;7.70;5.70;;;;;;;10.75;47.48;98503.10;102769;1265;112648;-73
2024/03/27 05:59:20;;;;;;;9.20;6.20;;;;;;;9.99;48.42;98491.23;103345;1261;108436;-73
2024/03/27 06:02:21;;;;;;;7.50;5.20;;;;;;;9.44;49.66;98496.10;102724;1262;99251;-73
2024/03/27 06:05:22;;;;;;;10.90;6.50;;;;;;;8.99;50.50;98493.17;102610;1262;106362;-72
2024/03/27 06:08:22;;;;;;;9.20;6.80;;;;;;;8.64;51.31;98490.02;103474;1262;97543;-73
2024/03/27 06:11:23;;;;;;;11.10;6.40;;;;;;;8.34;51.79;98493.47;104195;1262;112828;-74
2024/03/27 06:14:23;;;;;;;10.50;7.10;;;;;;;8.17;52.56;98488.27;104093;1262;109052;-74
2024/03/27 06:17:23;;;;;;;12.10;6.90;;;;;;;8.45;52.62;98488.40;104173;1262;97236;-73
2024/03/27 06:20:24;;;;;;;10.00;6.50;;;;;;;9.48;51.01;98487.55;104131;1262;106793;-72
2024/03/27 06:23:24;;;;;;;8.10;6.60;;;;;;;10.53;48.75;98485.48;104195;1262;97516;-73
2024/03/27 06:26:24;;;;;;;10.40;6.30;;;;;;;11.53;47.69;98480.29;104181;1262;112075;-73
2024/03/27 06:29:24;;;;;;;9.30;6.10;;;;;;;12.70;46.14;98479.98;104003;1262;138144;-74
2024/03/27 06:32:24;;;;;;;13.10;6.20;;;;;;;13.77;42.76;98479.42;104134;1262;97251;-72
2024/03/27 06:35:26;;;;;;;10.60;6.00;;;;;;;14.58;40.72;98488.35;102657;1262;137621;-72
2024/03/27 06:38:27;;;;;;;11.80;5.60;;;;;;;15.21;38.53;98498.34;102921;1261;99177;-72
2024/03/27 06:41:27;;;;;;;8.40;5.40;;;;;;;15.88;38.44;98471.94;102727;1266;114857;-74
2024/03/27 06:44:27;;;;;;;7.90;5.60;;;;;;;16.25;37.07;98483.38;102700;1262;107563;-73
2024/03/27 06:47:32;;;;;;;8.20;5.40;;;;;;;16.63;36.21;98477.56;102821;1267;99174;-81
2024/03/27 06:50:33;;;;;;;10.50;5.70;;;;;;;17.09;35.45;98475.56;102694;1262;107462;-76
2024/03/27 06:53:33;;;;;;;8.80;5.40;;;;;;;17.38;34.89;98476.69;102855;1265;99178;-75
2024/03/27 06:56:33;;;;;;;7.60;5.30;;;;;;;17.63;34.83;98471.02;102776;1262;112051;-76
2024/03/27 06:59:34;;;;;;;7.90;4.80;;;;;;;17.88;33.62;98486.36;102625;1262;137809;-77
2024/03/27 07:02:35;;;;;;;8.40;4.80;;;;;;;18.14;33.36;98466.70;102663;1266;99603;-76
2024/03/27 07:05:35;;;;;;;9.90;4.70;;;;;;;18.61;32.80;98476.80;102857;1262;108007;-75
2024/03/27 07:08:35;;;;;;;10.00;4.90;;;;;;;18.85;31.26;98474.52;103032;1266;97629;-79
2024/03/27 07:11:35;;;;;;;5.70;4.20;;;;;;;19.10;31.18;98474.61;102633;1262;137853;-75
2024/03/27 07:14:35;;;;;;;7.50;4.20;;;;;;;19.24;29.76;98492.13;102640;1262;107719;-74
2024/03/27 07:17:36;;;;;;;8.30;4.10;;;;;;;19.28;29.72;98485.87;102728;1262;137731;-75
2024/03/27 07:20:36;;;;;;;8.30;4.30;;;;;;;19.63;30.47;98465.10;103045;1266;106897;-76
2024/03/27 07:23:36;;;;;;;6.90;4.40;;;;;;;20.07;29.50;98460.76;102575;1266;137600;-76
2024/03/27 07:26:36;;;;;;;10.50;4.80;;;;;;;20.20;28.78;98461.77;102725;1262;112058;-77
2024/03/27 07:29:36;;;;;;;9.00;4.20;;;;;;;20.25;28.70;98454.16;102700;1266;137824;-74
2024/03/27 07:32:36;;;;;;;12.20;4.20;;;;;;;19.89;27.81;98465.77;102800;1267;99234;-76
2024/03/27 07:35:36;;;;;;;9.50;4.10;;;;;;;19.40;28.14;98462.58;102941;1262;137610;-77
2024/03/27 07:38:36;;;;;;;9.10;4.30;;;;;;;19.54;28.63;98459.80;102777;1262;99067;-72
2024/03/27 07:41:37;;;;;;;11.00;4.90;;;;;;;19.54;28.14;98468.45;102686;1262;137490;-76
2024/03/27 07:44:37;;;;;;;8.80;4.40;;;;;;;19.24;28.06;98473.42;102714;1262;107667;-77
2024/03/27 07:47:37;;;;;;;11.30;4.40;;;;;;;19.21;28.22;98487.46;102588;1262;137675;-75
2024/03/27 07:50:37;;;;;;;8.90;4.10;;;;;;;19.35;28.47;98467.86;102743;1262;107306;-75
2024/03/27 07:53:37;;;;;;;10.70;4.70;;;;;;;19.69;28.78;98444.96;102628;1262;137693;-76
2024/03/27 07:56:39;;;;;;;8.60;4.70;;;;;;;20.13;28.08;98443.26;102740;1262;114539;-75
2024/03/27 07:59:40;;;;;;;8.00;4.40;;;;;;;20.19;27.93;98439.10;103114;1262;109662;-77
2024/03/27 08:02:40;;;;;;;9.20;4.40;;;;;;;20.63;28.15;98452.34;103015;1263;100146;-74
2024/03/27 08:05:42;;;;;;;9.90;4.40;;;;;;;20.93;27.78;98427.86;103532;1263;107934;-76
2024/03/27 08:08:43;;;;;;;9.70;4.50;;;;;;;20.98;26.67;98455.38;102778;1262;99091;-76
2024/03/27 08:11:43;;;;;;;11.30;4.50;;;;;;;20.62;26.72;98452.08;102657;1265;112798;-75
2024/03/27 08:14:44;;;;;;;11.60;4.30;;;;;;;20.62;27.51;98428.43;102667;1267;107539;-74
2024/03/27 08:17:44;;;;;;;9.00;4.30;;;;;;;20.71;26.65;98436.33;102636;1262;99304;-76
2024/03/27 08:20:44;;;;;;;7.30;4.10;;;;;;;20.59;27.01;98422.91;102716;1262;107276;-68
2024/03/27 08:23:44;;;;;;;9.00;4.00;;;;;;;20.63;27.12;98425.81;103172;1264;137665;-73
2024/03/27 08:26:44;;;;;;;8.90;4.10;;;;;;;20.70;27.17;98417.19;102738;1262;112137;-75
2024/03/27 08:29:44;;;;;;;6.50;4.00;;;;;;;20.93;27.54;98416.89;102653;1262;137760;-76
2024/03/27 08:32:45;;;;;;;8.00;4.20;;;;;;;21.00;26.89;98418.29;102712;1262;99335;-75
2024/03/27 08:35:46;;;;;;;9.40;3.90;;;;;;;20.99;26.71;98416.10;102584;1262;137563;-74
2024/03/27 08:38:47;;;;;;;7.70;3.90;;;;;;;20.80;26.73;98417.89;102663;1267;99162;-75
2024/03/27 08:41:47;;;;;;;8.10;3.60;;;;;;;20.77;26.79;98421.69;102755;1262;113393;-77
2024/03/27 08:44:48;;;;;;;9.70;3.90;;;;;;;20.48;26.20;98433.17;102630;1262;106682;-75
2024/03/27 08:47:48;;;;;;;8.10;4.00;;;;;;;20.18;26.86;98422.83;102613;1266;99437;-71
2024/03/27 08:50:52;;;;;;;6.20;3.70;;;;;;;20.07;27.16;98418.39;102676;1265;107199;-71
2024/03/27 08:53:54;;;;;;;10.80;4.10;;;;;;;19.83;26.97;98419.53;102819;1261;99175;-70
2024/03/27 08:56:54;;;;;;;7.50;4.00;;;;;;;19.49;27.19;98447.64;102715;1263;111915;-71
2024/03/27 08:59:55;;;;;;;7.60;3.80;;;;;;;19.22;28.01;98395.61;102682;1264;108421;-70
2024/03/27 09:02:58;;;;;;;7.10;3.90;;;;;;;19.43;28.02;98420.24;102850;1260;99074;-71
2024/03/27 09:05:57;;;;;;;8.90;4.10;;;;;;;19.32;27.89;98416.16;102814;1259;109045;-71
2024/03/27 09:08:57;;;;;;;10.70;3.70;;;;;;;19.13;28.06;98419.80;102838;1265;99299;-70
2024/03/27 09:11:57;;;;;;;7.40;4.10;;;;;;;19.01;28.05;98419.70;102767;1262;138730;-69
2024/03/27 09:14:58;;;;;;;9.20;4.20;;;;;;;18.80;28.49;98426.66;102743;1264;108356;-76
2024/03/27 09:17:59;;;;;;;8.50;4.10;;;;;;;18.68;28.84;98420.90;102690;1261;138175;-75
2024/03/27 09:21:05;;;;;;;8.00;3.60;;;;;;;18.66;29.34;98418.77;102832;1260;106821;-75
2024/03/27 09:24:06;;;;;;;8.00;4.20;;;;;;;18.82;29.60;98418.54;102811;1261;99283;-77
2024/03/27 09:27:07;;;;;;;6.20;3.40;;;;;;;19.08;28.92;98414.80;102834;1265;111335;-71
2024/03/27 09:30:08;;;;;;;6.50;4.10;;;;;;;19.37;29.46;98393.77;102714;1259;107321;-78
2024/03/27 09:33:09;;;;;;;5.50;3.70;;;;;;;19.66;29.07;98409.52;102795;1262;98298;-78
2024/03/27 09:36:10;;;;;;;11.70;3.70;;;;;;;19.86;28.74;98410.92;102802;1262;109988;-79
2024/03/27 09:39:11;;;;;;;8.60;4.10;;;;;;;19.92;28.53;98414.58;102751;1265;99045;-78
2024/03/27 09:42:13;;;;;;;5.60;3.70;;;;;;;20.12;28.60;98409.50;102766;1261;112694;-78
2024/03/27 09:45:16;;;;;;;6.70;3.50;;;;;;;20.23;28.76;98407.29;102752;1265;107939;-78
2024/03/27 09:48:18;;;;;;;7.00;4.00;;;;;;;20.35;28.27;98412.09;103638;1265;99171;-78
2024/03/27 09:51:20;;;;;;;5.80;3.50;;;;;;;20.31;28.20;98413.36;102769;1265;107800;-78
2024/03/27 09:54:22;;;;;;;9.40;4.10;;;;;;;20.48;28.41;98419.45;102812;1265;99273;-79
2024/03/27 09:57:22;;;;;;;5.30;3.60;;;;;;;20.55;27.75;98409.16;102781;1262;112183;-78
2024/03/27 10:00:23;;;;;;;7.40;3.50;;;;;;;20.56;28.13;98405.39;102759;1265;110243;-78
2024/03/27 10:03:23;;;;;;;7.30;3.40;;;;;;;20.70;28.27;98403.68;102812;1262;99644;-79
2024/03/27 10:06:24;;;;;;;6.40;3.20;;;;;;;20.66;27.70;98396.41;102796;1265;108577;-78
2024/03/27 10:09:24;;;;;;;7.20;4.10;;;;;;;20.42;27.64;98413.86;102868;1265;99444;-78
2024/03/27 10:12:24;;;;;;;8.30;3.40;;;;;;;20.23;28.27;98417.66;102915;1265;112686;-78
2024/03/27 10:15:25;;;;;;;5.60;3.60;;;;;;;20.03;27.72;98414.83;103432;1265;107068;-79
2024/03/27 10:18:26;;;;;;;7.60;3.90;;;;;;;19.61;27.98;98417.70;103552;1261;97285;-79
2024/03/27 10:21:28;;;;;;;6.70;3.10;;;;;;;19.35;28.39;98396.59;103449;1260;105892;-79
2024/03/27 10:24:29;;;;;;;5.40;3.40;;;;;;;19.14;28.43;98421.19;103101;1264;99169;-74
2024/03/27 10:27:30;;;;;;;7.80;3.80;;;;;;;19.08;28.79;98401.61;102872;1262;113432;-74
2024/03/27 10:30:31;;;;;;;6.10;3.50;;;;;;;18.86;28.66;98409.37;102761;1262;107353;-75
2024/03/27 10:33:32;;;;;;;7.70;3.40;;;;;;;18.68;28.90;98406.97;102838;1265;99155;-73
2024/03/27 10:36:34;;;;;;;7.40;3.20;;;;;;;18.50;29.32;98401.75;102796;1265;108539;-74
2024/03/27 10:39:37;;;;;;;7.60;2.90;;;;;;;18.37;29.30;98409.13;102762;1262;99181;-77
2024/03/27 10:42:40;;;;;;;5.90;3.00;;;;;;;18.36;29.89;98422.59;102790;1265;116151;-75
2024/03/27 10:45:46;;;;;;;6.90;3.20;;;;;;;18.26;29.57;98416.70;102737;1263;107337;-78
2024/03/27 10:48:48;;;;;;;8.20;3.50;;;;;;;18.11;29.76;98409.65;102841;1265;99585;-75
2024/03/27 10:51:49;;;;;;;5.60;3.00;;;;;;;18.06;30.17;98412.19;102779;1264;107586;-75
2024/03/27 10:54:52;;;;;;;6.80;3.10;;;;;;;17.97;30.38;98399.15;102787;1265;99229;-76
2024/03/27 10:57:53;;;;;;;7.70;3.20;;;;;;;17.93;30.56;98407.81;102827;1265;112931;-73
2024/03/27 11:00:54;;;;;;;4.90;2.60;;;;;;;17.90;30.72;98400.67;102734;1265;109031;-75
2024/03/27 11:03:57;;;;;;;7.80;3.40;;;;;;;17.87;30.72;98399.38;102705;1264;99169;-74
2024/03/27 11:06:58;;;;;;;7.10;3.30;;;;;;;17.83;30.92;98401.48;102663;1264;107572;-74
2024/03/27 11:10:00;;;;;;;7.10;3.20;;;;;;;17.73;31.16;98387.11;102800;1265;99165;-74
2024/03/27 11:13:04;;;;;;;10.90;3.30;;;;;;;17.67;31.39;98380.64;102827;1261;112844;-73
2024/03/27 11:16:07;;;;;;;8.60;3.30;;;;;;;17.67;31.43;98366.44;102784;1265;107639;-75
2024/03/27 11:19:13;;;;;;;5.60;3.10;;;;;;;17.67;31.73;98363.73;102843;1261;99251;-74
2024/03/27 11:22:18;;;;;;;5.60;3.20;;;;;;;17.74;31.62;98368.93;102809;1265;107537;-75
2024/03/27 11:25:20;;;;;;;7.20;3.30;;;;;;;17.65;31.52;98361.70;102788;1265;99167;-73
2024/03/27 11:28:26;;;;;;;11.40;3.20;;;;;;;17.60;31.71;98368.64;102842;1260;112840;-76
2024/03/27 11:31:29;;;;;;;9.10;2.90;;;;;;;17.60;32.16;98343.81;102666;1265;107272;-76
2024/03/27 11:34:31;;;;;;;9.60;3.30;;;;;;;17.59;31.88;98356.22;102793;1265;99720;-76
2024/03/27 11:37:32;;;;;;;8.30;3.10;;;;;;;17.58;32.00;98348.46;102711;1262;107382;-74
2024/03/27 11:40:33;;;;;;;6.60;3.20;;;;;;;17.49;31.90;98345.56;102688;1265;99174;-76
2024/03/27 11:43:34;;;;;;;8.70;3.60;;;;;;;17.49;32.31;98334.83;102786;1265;111598;-75
2024/03/27 11:46:35;;;;;;;7.00;3.20;;;;;;;17.52;32.13;98343.64;102733;1265;107911;-74
2024/03/27 11:49:36;;;;;;;7.70;3.40;;;;;;;17.45;32.30;98338.10;102764;1261;99661;-75
2024/03/27 11:52:37;;;;;;;7.80;3.00;;;;;;;17.44;32.28;98347.56;102792;1266;107465;-74
2024/03/27 11:55:37;;;;;;;6.10;3.00;;;;;;;17.36;32.38;98343.14;102784;1261;99252;-75
2024/03/27 11:58:38;;;;;;;11.40;3.40;;;;;;;17.36;32.82;98338.95;102776;1265;113021;-74
2024/03/27 12:01:39;;;;;;;6.80;2.90;;;;;;;17.43;33.09;98340.23;102695;1261;107645;-75
2024/03/27 12:04:42;;;;;;;5.00;3.00;;;;;;;17.44;32.25;98357.23;102779;1261;99625;-76
2024/03/27 12:07:44;;;;;;;6.50;2.70;;;;;;;17.33;32.23;98359.65;102719;1265;106892;-75
2024/03/27 12:10:49;;;;;;;6.30;2.80;;;;;;;17.25;32.37;98349.08;102772;1265;99207;-75
2024/03/27 12:13:50;;;;;;;8.40;3.00;;;;;;;17.29;32.74;98345.26;102776;1261;112348;-75
2024/03/27 12:16:51;;;;;;;5.80;3.00;;;;;;;17.34;32.62;98333.67;102819;1265;108154;-75
2024/03/27 12:20:00;;;;;;;11.00;3.50;;;;;;;17.39;32.67;98334.87;102853;1264;99169;-75
2024/03/27 12:23:01;;;;;;;5.00;3.10;;;;;;;17.40;32.56;98341.74;102816;1265;107903;-74
2024/03/27 12:26:04;;;;;;;6.70;2.60;;;;;;;17.37;32.84;98329.19;102743;1266;99251;-75
2024/03/27 12:29:05;;;;;;;7.60;2.90;;;;;;;17.36;32.87;98327.05;102781;1261;113532;-74
2024/03/27 12:32:05;;;;;;;5.80;2.80;;;;;;;17.32;32.83;98333.23;102711;1260;107253;-76
2024/03/27 12:35:07;;;;;;;6.40;3.00;;;;;;;17.31;33.15;98325.86;102813;1261;99162;-76
2024/03/27 12:38:08;;;;;;;9.70;3.20;;;;;;;17.29;33.13;98315.91;102876;1260;108100;-76
2024/03/27 12:41:08;;;;;;;8.20;2.90;;;;;;;17.27;33.34;98305.95;102820;1264;99313;-74
2024/03/27 12:44:09;;;;;;;10.30;2.80;;;;;;;17.30;33.08;98309.48;102828;1265;112932;-75
2024/03/27 12:47:10;;;;;;;7.00;2.90;;;;;;;17.30;32.91;98306.98;102798;1265;106773;-76
2024/03/27 12:50:11;;;;;;;5.30;3.20;;;;;;;17.28;33.09;98297.35;102806;1260;99865;-75
2024/03/27 12:53:12;;;;;;;8.20;2.80;;;;;;;17.32;33.38;98296.69;102775;1266;108088;-75
2024/03/27 12:56:13;;;;;;;5.90;2.80;;;;;;;17.36;32.96;98323.30;102750;1264;99943;-76
2024/03/27 12:59:14;;;;;;;8.80;2.90;;;;;;;17.32;33.37;98302.95;102770;1260;112373;-75
2024/03/27 13:02:19;;;;;;;8.60;2.70;;;;;;;17.38;33.50;98299.45;102767;1262;107504;-76
2024/03/27 13:05:18;;;;;;;8.40;3.10;;;;;;;17.36;33.44;98309.30;102812;1266;99177;-75
2024/03/27 13:08:19;;;;;;;7.30;3.20;;;;;;;17.28;33.45;98305.33;102784;1265;108039;-75
2024/03/27 13:11:21;;;;;;;7.60;3.10;;;;;;;17.28;33.78;98288.23;102802;1261;99197;-74
2024/03/27 13:14:22;;;;;;;8.20;2.80;;;;;;;17.32;33.77;98287.17;102822;1265;111950;-74
2024/03/27 13:17:23;;;;;;;9.20;3.10;;;;;;;17.33;33.90;98291.34;102679;1261;105702;-74
2024/03/27 13:20:24;;;;;;;4.70;2.80;;;;;;;17.34;34.30;98285.09;102808;1266;99534;-75
2024/03/27 13:23:24;;;;;;;7.00;2.70;;;;;;;17.38;34.06;98285.41;102777;1260;107355;-74
2024/03/27 13:26:25;;;;;;;9.60;2.80;;;;;;;17.42;34.28;98282.77;102755;1260;99073;-72
2024/03/27 13:29:25;;;;;;;8.20;2.70;;;;;;;17.44;33.99;98282.40;103028;1260;111692;-72